createdAt,value
2023-05-18T03:22:37.341Z,20.50
2023-05-18T03:25:30.521Z,20.50
2023-05-18T03:28:24.282Z,20.50
2023-05-18T03:31:17.513Z,20.40
2023-05-18T03:34:11.899Z,20.40
2023-05-18T03:37:05.936Z,20.40
2023-05-18T03:40:10.932Z,20.40
2023-05-18T03:43:04.283Z,20.50
2023-05-18T03:45:57.208Z,20.40
2023-05-18T03:48:50.057Z,20.50
2023-05-18T03:51:43.065Z,20.40
2023-05-18T03:54:36.390Z,20.40
2023-05-18T03:57:32.743Z,20.40
2023-05-18T04:00:26.376Z,20.40
2023-05-18T04:03:21.668Z,20.40
2023-05-18T04:06:15.000Z,20.40
2023-05-18T04:09:08.189Z,20.50
2023-05-18T04:12:02.885Z,20.50
2023-05-18T04:14:58.275Z,20.50
2023-05-18T04:17:53.748Z,20.40
2023-05-18T04:20:47.329Z,20.40
2023-05-18T04:23:40.867Z,20.50
2023-05-18T04:26:36.373Z,20.40
2023-05-18T04:29:29.889Z,20.50
2023-05-18T04:32:27.014Z,20.40
2023-05-18T04:35:20.202Z,20.40
2023-05-18T04:38:13.473Z,20.40
2023-05-18T04:41:08.149Z,20.50
2023-05-18T04:44:01.912Z,20.40
2023-05-18T04:46:55.617Z,20.40
2023-05-18T04:49:52.308Z,20.40
2023-05-18T04:52:48.561Z,20.40
2023-05-18T04:55:42.750Z,20.50
2023-05-18T04:58:37.064Z,20.40
2023-05-18T05:01:30.134Z,20.50
2023-05-18T05:04:23.780Z,20.40
2023-05-18T05:07:18.791Z,20.50
2023-05-18T05:10:12.354Z,20.50
2023-05-18T05:13:05.839Z,20.50
2023-05-18T05:15:59.173Z,20.50
2023-05-18T05:18:52.348Z,20.50
2023-05-18T05:21:45.264Z,20.50
2023-05-18T05:24:39.948Z,20.50
2023-05-18T05:27:33.037Z,20.50
2023-05-18T05:30:26.230Z,20.50
2023-05-18T05:33:19.755Z,20.50
2023-05-18T05:36:13.184Z,20.50
2023-05-18T05:39:06.589Z,20.50
2023-05-18T05:42:00.863Z,20.50
2023-05-18T05:44:54.422Z,20.50
2023-05-18T05:47:47.160Z,20.50
2023-05-18T05:50:40.536Z,20.50
2023-05-18T05:53:33.565Z,20.50
2023-05-18T05:56:26.420Z,20.50
2023-05-18T05:59:21.426Z,20.50
2023-05-18T06:02:14.585Z,20.50
2023-05-18T06:05:08.458Z,20.50
2023-05-18T06:08:01.268Z,20.50
2023-05-18T06:10:56.205Z,20.50
2023-05-18T06:13:49.430Z,20.50
2023-05-18T06:16:43.646Z,20.60
2023-05-18T06:19:37.407Z,20.50
2023-05-18T06:22:30.478Z,20.50
2023-05-18T06:25:24.270Z,20.50
2023-05-18T06:28:18.013Z,20.50
2023-05-18T06:31:12.789Z,20.50
2023-05-18T06:34:08.116Z,20.60
2023-05-18T06:37:01.601Z,20.60
2023-05-18T06:39:54.198Z,20.60
2023-05-18T06:42:47.300Z,20.60
2023-05-18T06:45:40.178Z,20.60
2023-05-18T06:48:33.498Z,20.60
2023-05-18T06:51:27.952Z,20.60
2023-05-18T06:54:22.078Z,20.60
2023-05-18T06:57:15.747Z,20.60
2023-05-18T07:00:10.247Z,20.60
2023-05-18T07:03:03.691Z,20.60
2023-05-18T07:05:57.276Z,20.60
2023-05-18T07:08:51.653Z,20.60
2023-05-18T07:11:45.441Z,20.70
2023-05-18T07:14:38.414Z,20.60
2023-05-18T07:17:32.160Z,20.70
2023-05-18T07:20:26.605Z,20.70
2023-05-18T07:23:20.963Z,20.70
2023-05-18T07:26:15.571Z,20.80
2023-05-18T07:29:08.167Z,20.80
2023-05-18T07:32:01.503Z,20.80
2023-05-18T07:34:54.619Z,20.80
2023-05-18T07:37:47.493Z,20.80
2023-05-18T07:40:41.147Z,20.80
2023-05-18T07:43:36.120Z,20.80
2023-05-18T07:46:29.431Z,20.90
2023-05-18T07:49:23.220Z,20.80
2023-05-18T07:52:16.518Z,20.80
2023-05-18T07:55:10.074Z,20.80
2023-05-18T07:58:03.226Z,20.80
2023-05-18T08:00:58.215Z,20.80
2023-05-18T08:03:51.813Z,20.80
2023-05-18T08:06:45.470Z,20.80
2023-05-18T08:09:38.505Z,20.80
2023-05-18T08:12:31.583Z,20.80
2023-05-18T08:15:24.491Z,20.80
2023-05-18T08:18:19.207Z,20.80
2023-05-18T08:21:12.677Z,20.80
2023-05-18T08:24:06.661Z,20.80
2023-05-18T08:26:59.158Z,20.80
2023-05-18T08:29:52.536Z,20.80
2023-05-18T08:32:46.032Z,20.80
2023-05-18T08:35:41.416Z,20.80
2023-05-18T08:38:35.023Z,20.80
2023-05-18T08:41:31.637Z,20.80
2023-05-18T08:44:29.760Z,20.80
2023-05-18T08:47:26.368Z,20.80
2023-05-18T08:50:24.309Z,20.90
2023-05-18T08:53:19.576Z,20.90
2023-05-18T08:56:13.400Z,20.90
2023-05-18T08:59:08.435Z,20.90
2023-05-18T09:02:02.021Z,20.90
2023-05-18T09:04:56.965Z,20.90
2023-05-18T09:07:51.498Z,20.90
2023-05-18T09:10:48.855Z,21.00
2023-05-18T09:13:44.185Z,20.90
2023-05-18T09:16:37.883Z,21.00
2023-05-18T09:19:31.687Z,21.00
2023-05-18T09:22:24.949Z,21.00
2023-05-18T09:25:19.721Z,21.00
2023-05-18T09:28:14.933Z,21.00
2023-05-18T09:31:12.359Z,21.00
2023-05-18T09:34:06.505Z,21.00
2023-05-18T09:36:59.903Z,21.00
2023-05-18T09:40:01.005Z,21.00
2023-05-18T09:42:55.849Z,21.10
2023-05-18T09:45:51.285Z,21.10
2023-05-18T09:48:46.446Z,21.00
2023-05-18T09:51:40.221Z,21.10
2023-05-18T09:54:37.643Z,21.10
2023-05-18T09:57:30.741Z,21.10
2023-05-18T10:00:25.936Z,21.10
2023-05-18T10:03:23.518Z,21.10
2023-05-18T10:06:19.797Z,21.10
2023-05-18T10:09:16.832Z,21.10
2023-05-18T10:12:13.848Z,21.10
2023-05-18T10:15:11.130Z,21.10
2023-05-18T10:18:06.395Z,21.10
2023-05-18T10:21:01.885Z,21.10
2023-05-18T10:23:56.048Z,21.10
2023-05-18T10:26:52.939Z,21.10
2023-05-18T10:29:47.358Z,21.10
2023-05-18T10:32:41.255Z,21.10
2023-05-18T10:35:34.804Z,21.10
2023-05-18T10:38:29.808Z,21.10
2023-05-18T10:41:23.991Z,21.10
2023-05-18T10:44:18.189Z,21.10
2023-05-18T10:47:13.291Z,21.10
2023-05-18T10:50:07.831Z,21.10
2023-05-18T10:53:00.717Z,21.10
2023-05-18T10:55:57.688Z,21.10
2023-05-18T10:58:50.789Z,21.10
2023-05-18T11:01:44.692Z,21.20
2023-05-18T11:04:40.520Z,21.10
2023-05-18T11:07:34.161Z,21.20
2023-05-18T11:10:35.307Z,21.20
2023-05-18T11:13:32.147Z,21.10
2023-05-18T11:16:35.089Z,21.10
2023-05-18T11:19:28.712Z,21.20
2023-05-18T11:22:21.645Z,21.20
2023-05-18T11:25:37.929Z,21.10
2023-05-18T11:28:33.651Z,21.10
2023-05-18T11:31:44.552Z,21.10
2023-05-18T11:34:50.705Z,21.10
2023-05-18T11:37:51.100Z,21.10
2023-05-18T11:40:49.173Z,21.10
2023-05-18T11:43:44.790Z,21.10
2023-05-18T11:46:37.584Z,21.10
2023-05-18T11:49:32.858Z,21.10
2023-05-18T11:52:26.509Z,21.10
2023-05-18T11:55:20.589Z,21.10
2023-05-18T11:58:18.995Z,21.10
2023-05-18T12:01:14.724Z,21.10
2023-05-18T12:04:08.190Z,21.10
2023-05-18T12:07:06.665Z,21.10
2023-05-18T12:09:59.898Z,21.10
2023-05-18T12:12:53.924Z,21.10
2023-05-18T12:15:47.956Z,21.10
2023-05-18T12:18:44.464Z,21.10
2023-05-18T12:21:38.040Z,21.10
2023-05-18T12:24:31.541Z,21.10
2023-05-18T12:27:26.479Z,21.10
2023-05-18T12:30:21.180Z,21.10
2023-05-18T12:33:14.513Z,21.10
2023-05-18T12:36:13.934Z,21.10
2023-05-18T12:39:06.922Z,21.10
2023-05-18T12:42:16.204Z,21.10
2023-05-18T12:45:11.386Z,21.10
2023-05-18T12:48:08.955Z,21.10
2023-05-18T12:51:02.841Z,21.10
2023-05-18T12:54:00.195Z,21.00
2023-05-18T12:57:01.493Z,21.00
2023-05-18T12:59:56.002Z,21.00
2023-05-18T13:02:49.604Z,21.00
2023-05-18T13:05:44.903Z,21.00
2023-05-18T13:08:38.662Z,21.10
2023-05-18T13:11:35.875Z,21.00
2023-05-18T13:14:30.494Z,21.00
2023-05-18T13:17:24.300Z,21.00
2023-05-18T13:20:18.149Z,21.00
2023-05-18T13:23:13.347Z,21.00
2023-05-18T13:26:06.564Z,21.00
2023-05-18T13:29:01.187Z,21.00
2023-05-18T13:31:54.589Z,21.00
2023-05-18T13:34:48.126Z,21.00
2023-05-18T13:37:42.423Z,21.00
2023-05-18T13:40:36.145Z,21.00
2023-05-18T13:43:29.534Z,21.00
2023-05-18T13:46:24.179Z,21.00
2023-05-18T13:49:17.846Z,21.00
2023-05-18T13:52:10.651Z,21.00
2023-05-18T13:55:04.551Z,21.00
2023-05-18T13:57:57.896Z,21.00
2023-05-18T14:00:50.516Z,21.00
2023-05-18T14:03:45.012Z,21.00
2023-05-18T14:06:40.737Z,21.00
2023-05-18T14:09:33.952Z,21.00
2023-05-18T14:12:26.792Z,21.00
2023-05-18T14:15:19.625Z,21.00
2023-05-18T14:18:12.824Z,20.90
2023-05-18T14:21:07.043Z,21.00
2023-05-18T14:24:03.572Z,21.00
2023-05-18T14:26:56.873Z,21.00
2023-05-18T14:29:50.552Z,21.00
2023-05-18T14:32:44.034Z,20.90
2023-05-18T14:35:37.632Z,21.00
2023-05-18T14:38:32.216Z,20.90
2023-05-18T14:41:26.010Z,20.90
2023-05-18T14:44:18.947Z,20.90
2023-05-18T14:47:12.000Z,21.00
2023-05-18T14:50:05.026Z,20.90
2023-05-18T14:52:58.791Z,20.90
2023-05-18T14:55:53.475Z,20.90
2023-05-18T14:58:46.810Z,20.90
2023-05-18T15:01:39.703Z,20.90
2023-05-18T15:04:32.544Z,20.90
2023-05-18T15:07:25.810Z,20.90
2023-05-18T15:10:18.656Z,20.90
2023-05-18T15:13:14.527Z,20.90
2023-05-18T15:16:08.310Z,20.90
2023-05-18T15:19:01.834Z,20.90
2023-05-18T15:21:54.894Z,20.90
2023-05-18T15:24:48.109Z,20.90
2023-05-18T15:27:41.923Z,20.90
2023-05-18T15:30:36.253Z,20.90
2023-05-18T15:33:29.816Z,20.90
2023-05-18T15:36:22.485Z,20.90
2023-05-18T15:39:15.894Z,20.90
2023-05-18T15:42:09.165Z,20.90
2023-05-18T15:45:03.058Z,20.90
2023-05-18T15:47:56.989Z,20.90
2023-05-18T15:50:49.809Z,20.90
2023-05-18T15:53:43.349Z,20.90
2023-05-18T15:56:37.336Z,20.90
2023-05-18T15:59:30.742Z,20.90
2023-05-18T16:02:25.794Z,20.90
2023-05-18T16:05:22.139Z,20.90
2023-05-18T16:08:15.641Z,20.90
2023-05-18T16:11:09.226Z,20.90
2023-05-18T16:14:02.990Z,20.90
2023-05-18T16:16:55.698Z,20.90
2023-05-18T16:19:48.920Z,20.90
2023-05-18T16:22:43.393Z,20.90
2023-05-18T16:25:37.250Z,20.90
2023-05-18T16:28:31.052Z,20.90
2023-05-18T16:31:24.164Z,20.90
2023-05-18T16:34:17.891Z,20.90
2023-05-18T16:37:11.335Z,20.90
2023-05-18T16:40:07.293Z,20.90
2023-05-18T16:43:00.988Z,20.90
2023-05-18T16:45:54.070Z,20.90
2023-05-18T16:48:46.799Z,20.90
2023-05-18T16:51:40.018Z,20.90
2023-05-18T16:54:33.108Z,20.90
2023-05-18T16:57:27.773Z,20.90
2023-05-18T17:00:21.808Z,20.90
2023-05-18T17:03:17.314Z,20.90
2023-05-18T17:06:11.122Z,20.90
2023-05-18T17:09:05.576Z,20.90
2023-05-18T17:11:59.772Z,20.90
2023-05-18T17:14:54.413Z,20.90
2023-05-18T17:17:47.784Z,20.90
2023-05-18T17:20:40.988Z,21.10
2023-05-18T17:23:34.268Z,21.10
2023-05-18T17:26:30.534Z,21.20
2023-05-18T17:29:23.836Z,21.20
2023-05-18T17:32:18.100Z,21.20
2023-05-18T17:35:13.336Z,21.20
2023-05-18T17:38:07.726Z,21.20
2023-05-18T17:41:01.774Z,21.20
2023-05-18T17:43:54.980Z,21.30
2023-05-18T17:46:47.928Z,21.30
2023-05-18T17:49:42.410Z,21.30
2023-05-18T17:52:36.030Z,21.30
2023-05-18T17:55:29.122Z,21.40
2023-05-18T17:58:23.571Z,21.30
2023-05-18T18:01:17.381Z,21.30
2023-05-18T18:04:10.953Z,21.40
2023-05-18T18:07:05.491Z,21.40
2023-05-18T18:09:59.128Z,21.40
2023-05-18T18:12:52.030Z,21.40
2023-05-18T18:15:44.879Z,21.40
2023-05-18T18:18:38.968Z,21.40
2023-05-18T18:21:33.865Z,21.30
2023-05-18T18:24:28.359Z,21.40
2023-05-18T18:27:21.933Z,21.40
2023-05-18T18:30:15.956Z,21.40
2023-05-18T18:33:09.114Z,21.40
2023-05-18T18:36:02.248Z,21.40
2023-05-18T18:38:55.888Z,21.40
2023-05-18T18:41:51.102Z,21.40
2023-05-18T18:44:43.989Z,21.40
2023-05-18T18:47:36.852Z,21.40
2023-05-18T18:50:30.305Z,21.40
2023-05-18T18:53:24.356Z,21.40
2023-05-18T18:56:18.168Z,21.40
2023-05-18T18:59:12.308Z,21.40
2023-05-18T19:02:06.408Z,21.40
2023-05-18T19:05:00.240Z,21.40
2023-05-18T19:07:55.513Z,21.40
2023-05-18T19:10:49.086Z,21.40
2023-05-18T19:13:42.118Z,21.40
2023-05-18T19:16:36.702Z,21.40
2023-05-18T19:19:31.974Z,21.40
2023-05-18T19:22:25.157Z,21.40
2023-05-18T19:25:18.254Z,21.30
2023-05-18T19:28:11.211Z,21.30
2023-05-18T19:31:04.380Z,21.30
2023-05-18T19:34:00.612Z,21.30
2023-05-18T19:36:53.904Z,21.30
2023-05-18T19:39:47.179Z,21.20
2023-05-18T19:42:39.900Z,21.30
2023-05-18T19:45:33.783Z,21.20
2023-05-18T19:48:27.135Z,21.30
2023-05-18T19:51:21.162Z,21.30
2023-05-18T19:54:14.387Z,21.20
2023-05-18T19:57:08.189Z,21.30
2023-05-18T20:00:01.374Z,21.20
2023-05-18T20:02:54.985Z,21.30
2023-05-18T20:05:49.465Z,21.30
2023-05-18T20:08:44.610Z,21.30
2023-05-18T20:11:37.899Z,21.30
2023-05-18T20:14:33.253Z,21.30
2023-05-18T20:17:26.162Z,21.30
2023-05-18T20:20:20.374Z,21.30
2023-05-18T20:23:14.503Z,21.30
2023-05-18T20:26:09.564Z,21.30
2023-05-18T20:29:03.265Z,21.30
2023-05-18T20:31:56.459Z,21.30
2023-05-18T20:34:50.125Z,21.30
2023-05-18T20:37:44.245Z,21.30
2023-05-18T20:40:38.025Z,21.30
2023-05-18T20:43:33.268Z,21.30
2023-05-18T20:46:27.499Z,21.30
2023-05-18T20:49:22.220Z,21.30
2023-05-18T20:52:15.499Z,21.30
2023-05-18T20:55:10.142Z,21.30
2023-05-18T20:58:02.915Z,21.30
2023-05-18T21:00:57.706Z,21.30
2023-05-18T21:03:51.036Z,21.30
2023-05-18T21:06:44.364Z,21.20
2023-05-18T21:09:37.905Z,21.30
2023-05-18T21:12:31.801Z,21.30
2023-05-18T21:15:24.909Z,21.30
2023-05-18T21:18:19.655Z,21.30
2023-05-18T21:21:13.321Z,21.30
2023-05-18T21:24:07.038Z,21.30
2023-05-18T21:27:01.179Z,21.30
2023-05-18T21:29:54.279Z,21.30
2023-05-18T21:32:48.202Z,21.30
2023-05-18T21:35:42.598Z,21.30
2023-05-18T21:38:36.209Z,21.30
2023-05-18T21:41:29.429Z,21.30
2023-05-18T21:44:22.990Z,21.30
2023-05-18T21:47:16.387Z,21.30
2023-05-18T21:50:10.840Z,21.30
2023-05-18T21:53:05.632Z,21.30
2023-05-18T21:55:58.918Z,21.30
2023-05-18T21:58:52.233Z,21.30
2023-05-18T22:01:45.326Z,21.30
2023-05-18T22:04:38.180Z,21.30
2023-05-18T22:07:30.971Z,21.30
2023-05-18T22:10:25.371Z,21.30
2023-05-18T22:13:17.937Z,21.30
2023-05-18T22:16:11.422Z,21.30
2023-05-18T22:19:05.390Z,21.30
2023-05-18T22:22:01.425Z,21.30
2023-05-18T22:24:55.245Z,21.30
2023-05-18T22:27:49.582Z,21.30
2023-05-18T22:30:43.228Z,21.30
2023-05-18T22:33:36.495Z,21.30
2023-05-18T22:36:30.437Z,21.30
2023-05-18T22:39:24.617Z,21.30
2023-05-18T22:42:18.395Z,21.30
2023-05-18T22:45:12.846Z,21.30
2023-05-18T22:48:06.731Z,21.30
2023-05-18T22:51:00.833Z,21.30
2023-05-18T22:53:54.387Z,21.30
2023-05-18T22:56:48.194Z,21.30
2023-05-18T22:59:41.284Z,21.20
2023-05-18T23:02:35.728Z,21.30
2023-05-18T23:05:29.212Z,21.30
2023-05-18T23:08:22.231Z,21.30
2023-05-18T23:11:18.465Z,21.30
2023-05-18T23:14:12.701Z,21.30
2023-05-18T23:17:06.523Z,21.30
2023-05-18T23:20:05.820Z,21.30
2023-05-18T23:22:58.959Z,21.30
2023-05-18T23:25:53.148Z,21.30
2023-05-18T23:28:46.682Z,21.30
2023-05-18T23:31:40.319Z,21.30
2023-05-18T23:34:33.484Z,21.30
2023-05-18T23:37:31.418Z,21.30
2023-05-18T23:40:25.834Z,21.30
2023-05-18T23:43:19.549Z,21.30
2023-05-18T23:46:14.137Z,21.30
2023-05-18T23:49:08.077Z,21.30
2023-05-18T23:52:03.368Z,21.30
2023-05-18T23:54:59.023Z,21.20
2023-05-18T23:57:52.938Z,21.20
